createdAt,value
2023-02-01T00:00:16.972Z,4.80
2023-02-01T00:02:43.533Z,3.70
2023-02-01T00:05:10.859Z,4.40
2023-02-01T00:07:37.902Z,4.20
2023-02-01T00:10:05.920Z,3.80
2023-02-01T00:12:32.835Z,3.58
2023-02-01T00:14:59.250Z,4.15
2023-02-01T00:17:25.863Z,4.20
2023-02-01T00:19:52.245Z,3.63
2023-02-01T00:22:18.895Z,4.22
2023-02-01T00:24:45.308Z,3.80
2023-02-01T00:27:11.673Z,3.58
2023-02-01T00:29:38.040Z,4.43
2023-02-01T00:32:04.687Z,3.38
2023-02-01T00:34:31.094Z,4.25
2023-02-01T00:36:57.496Z,3.70
2023-02-01T00:39:23.936Z,4.57
2023-02-01T00:41:50.280Z,3.90
2023-02-01T00:44:16.853Z,4.18
2023-02-01T00:46:43.337Z,4.47
2023-02-01T00:49:10.016Z,5.22
2023-02-01T00:51:36.368Z,4.28
2023-02-01T00:54:04.197Z,4.55
2023-02-01T00:56:31.159Z,4.85
2023-02-01T00:58:57.661Z,5.03
2023-02-01T01:01:27.031Z,5.25
2023-02-01T01:03:57.815Z,5.13
2023-02-01T01:06:27.475Z,4.80
2023-02-01T01:08:58.502Z,5.35
2023-02-01T01:11:28.717Z,5.40
2023-02-01T01:13:57.203Z,4.88
2023-02-01T01:16:25.796Z,6.13
2023-02-01T01:21:19.315Z,5.38
2023-02-01T01:23:47.456Z,4.95
2023-02-01T01:26:22.143Z,4.82
2023-02-01T01:28:48.783Z,5.60
2023-02-01T01:31:17.308Z,4.78
2023-02-01T01:33:45.000Z,5.35
2023-02-01T01:36:12.989Z,4.68
2023-02-01T01:38:42.433Z,4.45
2023-02-01T01:41:13.895Z,4.47
2023-02-01T01:43:53.544Z,4.13
2023-02-01T01:46:23.717Z,4.63
2023-02-01T01:48:56.616Z,4.22
2023-02-01T01:51:25.538Z,4.10
2023-02-01T01:54:18.116Z,4.57
2023-02-01T01:56:49.760Z,4.18
2023-02-01T01:59:16.300Z,4.20
2023-02-01T02:01:43.284Z,3.38
2023-02-01T02:04:10.627Z,3.88
2023-02-01T02:06:48.779Z,3.80
2023-02-01T02:09:15.858Z,3.80
2023-02-01T02:11:43.095Z,3.67
2023-02-01T02:14:14.120Z,3.22
2023-02-01T02:16:54.376Z,3.17
2023-02-01T02:19:57.637Z,3.33
2023-02-01T02:22:34.497Z,2.95
2023-02-01T02:25:30.938Z,3.10
2023-02-01T02:28:19.085Z,3.38
2023-02-01T02:31:01.214Z,3.17
2023-02-01T02:33:42.787Z,2.75
2023-02-01T02:36:38.522Z,3.38
2023-02-01T02:39:32.504Z,3.45
2023-02-01T02:42:40.955Z,3.70
2023-02-01T02:45:32.922Z,2.70
2023-02-01T02:48:17.028Z,3.20
2023-02-01T02:51:08.767Z,2.97
2023-02-01T02:54:19.671Z,2.70
2023-02-01T02:57:07.819Z,3.00
2023-02-01T02:59:55.229Z,2.70
2023-02-01T03:02:41.349Z,3.72
2023-02-01T03:05:07.942Z,2.88
2023-02-01T03:07:58.051Z,2.67
2023-02-01T03:10:51.348Z,2.53
2023-02-01T03:13:29.377Z,2.83
2023-02-01T03:16:01.929Z,3.83
2023-02-01T03:18:50.596Z,2.83
2023-02-01T03:21:24.314Z,3.17
2023-02-01T03:23:54.188Z,3.45
2023-02-01T03:26:23.031Z,2.90
2023-02-01T03:28:57.212Z,3.00
2023-02-01T03:31:24.687Z,3.03
2023-02-01T03:33:51.696Z,2.95
2023-02-01T03:36:59.669Z,3.05
2023-02-01T03:39:38.997Z,2.78
2023-02-01T03:42:24.625Z,3.45
2023-02-01T03:44:58.840Z,3.72
2023-02-01T03:47:30.045Z,2.90
2023-02-01T03:50:01.454Z,3.85
2023-02-01T03:52:42.689Z,3.05
2023-02-01T03:55:11.923Z,2.65
2023-02-01T03:57:51.989Z,3.10
2023-02-01T04:00:25.273Z,3.13
2023-02-01T04:02:53.350Z,2.70
2023-02-01T04:05:20.945Z,3.90
2023-02-01T04:07:55.919Z,3.40
2023-02-01T04:10:22.632Z,3.28
2023-02-01T04:12:49.166Z,4.32
2023-02-01T04:15:15.628Z,3.30
2023-02-01T04:17:41.959Z,2.92
2023-02-01T04:20:09.907Z,2.90
2023-02-01T04:22:36.283Z,3.03
2023-02-01T04:25:02.982Z,3.63
2023-02-01T04:27:29.364Z,2.83
2023-02-01T04:29:58.411Z,3.72
2023-02-01T04:32:24.942Z,3.53
2023-02-01T04:34:51.373Z,3.00
2023-02-01T04:37:17.789Z,2.80
2023-02-01T04:39:44.158Z,2.60
2023-02-01T04:42:10.559Z,3.78
2023-02-01T04:44:40.304Z,3.30
2023-02-01T04:47:06.790Z,3.45
2023-02-01T04:49:33.187Z,3.42
2023-02-01T04:51:59.578Z,2.60
2023-02-01T04:54:26.256Z,3.72
2023-02-01T04:56:52.723Z,3.05
2023-02-01T04:59:19.230Z,3.15
2023-02-01T05:01:47.439Z,2.83
2023-02-01T05:04:15.183Z,2.97
2023-02-01T05:06:41.553Z,3.10
2023-02-01T05:09:08.009Z,3.00
2023-02-01T05:11:57.481Z,2.70
2023-02-01T05:14:23.849Z,3.15
2023-02-01T05:16:50.208Z,3.00
2023-02-01T05:19:16.587Z,2.67
2023-02-01T05:21:42.949Z,3.55
2023-02-01T05:24:20.647Z,2.90
2023-02-01T05:26:48.360Z,2.70
2023-02-01T05:29:16.367Z,2.65
2023-02-01T05:31:45.792Z,2.85
2023-02-01T05:34:12.592Z,2.92
2023-02-01T05:36:39.001Z,2.70
2023-02-01T05:39:05.348Z,2.92
2023-02-01T05:41:31.709Z,3.03
2023-02-01T05:43:58.063Z,3.22
2023-02-01T05:46:24.590Z,2.97
2023-02-01T05:48:51.046Z,3.85
2023-02-01T05:51:17.526Z,3.50
2023-02-01T05:53:43.951Z,3.75
2023-02-01T05:56:10.340Z,3.22
2023-02-01T05:58:36.671Z,3.53
2023-02-01T06:01:04.580Z,4.25
2023-02-01T06:03:31.107Z,3.17
2023-02-01T06:05:57.544Z,4.63
2023-02-01T06:08:26.525Z,3.55
2023-02-01T06:10:59.189Z,3.55
2023-02-01T06:13:25.559Z,3.20
2023-02-01T06:15:52.232Z,3.63
2023-02-01T06:18:18.976Z,3.10
2023-02-01T06:20:45.402Z,3.75
2023-02-01T06:23:11.808Z,3.15
2023-02-01T06:25:38.642Z,3.58
2023-02-01T06:28:06.700Z,2.78
2023-02-01T06:30:33.157Z,3.30
2023-02-01T06:32:59.605Z,3.55
2023-02-01T06:35:27.067Z,3.30
2023-02-01T06:37:53.587Z,3.05
2023-02-01T06:40:19.965Z,3.47
2023-02-01T06:42:46.359Z,3.33
2023-02-01T06:45:12.903Z,4.03
2023-02-01T06:47:39.331Z,3.15
2023-02-01T06:50:06.367Z,3.10
2023-02-01T06:52:32.727Z,3.13
2023-02-01T06:54:59.085Z,3.38
2023-02-01T06:57:26.263Z,2.78
2023-02-01T06:59:52.635Z,3.08
2023-02-01T07:02:19.058Z,3.25
2023-02-01T07:04:45.453Z,3.70
2023-02-01T07:07:12.975Z,3.60
2023-02-01T07:09:39.402Z,3.47
2023-02-01T07:12:06.319Z,3.22
2023-02-01T07:14:32.676Z,4.53
2023-02-01T07:16:59.020Z,4.05
2023-02-01T07:19:25.426Z,3.28
2023-02-01T07:21:51.785Z,2.72
2023-02-01T07:24:18.167Z,3.38
2023-02-01T07:26:44.625Z,3.63
2023-02-01T07:29:11.114Z,3.00
2023-02-01T07:31:37.484Z,3.35
2023-02-01T07:34:04.176Z,3.58
2023-02-01T07:36:30.782Z,3.33
2023-02-01T07:38:58.341Z,3.95
2023-02-01T07:41:24.779Z,2.97
2023-02-01T07:43:53.637Z,3.75
2023-02-01T07:46:20.107Z,4.22
2023-02-01T07:48:46.530Z,3.70
2023-02-01T07:51:15.950Z,3.40
2023-02-01T07:53:43.610Z,3.15
2023-02-01T07:56:15.822Z,3.13
2023-02-01T07:58:42.473Z,3.15
2023-02-01T08:01:25.104Z,3.65
2023-02-01T08:04:00.212Z,3.63
2023-02-01T08:08:54.998Z,3.00
2023-02-01T08:11:22.779Z,3.08
2023-02-01T08:13:49.244Z,3.45
2023-02-01T08:16:17.863Z,2.85
2023-02-01T08:18:44.770Z,3.40
2023-02-01T08:21:23.923Z,3.25
2023-02-01T08:23:50.725Z,3.75
2023-02-01T08:26:25.904Z,3.17
2023-02-01T08:28:55.686Z,3.78
2023-02-01T08:31:24.809Z,3.75
2023-02-01T08:33:54.379Z,2.83
2023-02-01T08:36:21.490Z,3.30
2023-02-01T08:38:47.995Z,3.22
2023-02-01T08:41:17.921Z,2.83
2023-02-01T08:43:46.302Z,3.70
2023-02-01T08:46:12.934Z,3.00
2023-02-01T08:48:39.798Z,3.22
2023-02-01T08:51:10.017Z,3.45
2023-02-01T08:53:37.070Z,3.53
2023-02-01T08:56:04.568Z,3.25
2023-02-01T08:58:30.953Z,3.67
2023-02-01T09:00:57.305Z,4.38
2023-02-01T09:03:23.664Z,2.90
2023-02-01T09:05:50.293Z,3.05
2023-02-01T09:08:17.235Z,3.03
2023-02-01T09:10:43.859Z,2.90
2023-02-01T09:13:10.344Z,3.45
2023-02-01T09:15:38.221Z,3.50
2023-02-01T09:18:04.764Z,4.05
2023-02-01T09:20:31.167Z,3.55
2023-02-01T09:22:57.557Z,2.97
2023-02-01T09:25:23.982Z,2.80
2023-02-01T09:27:50.443Z,3.33
2023-02-01T09:30:16.960Z,3.03
2023-02-01T09:32:43.311Z,3.35
2023-02-01T09:35:09.928Z,3.10
2023-02-01T09:37:38.363Z,3.00
2023-02-01T09:40:05.336Z,4.10
2023-02-01T09:42:54.717Z,2.97
2023-02-01T09:45:44.947Z,2.92
2023-02-01T09:48:17.529Z,4.25
2023-02-01T09:50:50.785Z,3.10
2023-02-01T09:53:30.171Z,4.80
2023-02-01T09:56:04.508Z,2.83
2023-02-01T09:58:38.523Z,2.95
2023-02-01T10:01:11.496Z,3.05
2023-02-01T10:03:38.451Z,3.58
2023-02-01T10:06:13.916Z,3.13
2023-02-01T10:09:06.670Z,3.33
2023-02-01T10:11:49.211Z,3.70
2023-02-01T10:14:24.880Z,3.15
2023-02-01T10:17:04.817Z,3.80
2023-02-01T10:19:49.446Z,2.40
2023-02-01T10:22:46.342Z,3.97
2023-02-01T10:25:32.029Z,3.22
2023-02-01T10:28:01.590Z,2.97
2023-02-01T10:30:40.171Z,3.20
2023-02-01T10:33:15.246Z,3.33
2023-02-01T10:38:27.101Z,3.00
2023-02-01T10:40:57.911Z,3.45
2023-02-01T10:43:24.435Z,2.50
2023-02-01T10:45:50.819Z,2.75
2023-02-01T10:48:17.421Z,3.45
2023-02-01T10:50:54.598Z,2.70
2023-02-01T10:53:26.713Z,2.92
2023-02-01T10:55:54.864Z,3.20
2023-02-01T10:58:28.959Z,3.03
2023-02-01T11:00:59.404Z,3.75
2023-02-01T11:03:34.437Z,2.92
2023-02-01T11:08:28.509Z,2.85
2023-02-01T11:11:06.569Z,3.40
2023-02-01T11:13:38.946Z,3.75
2023-02-01T11:16:06.584Z,3.08
2023-02-01T11:18:37.381Z,3.28
2023-02-01T11:21:05.830Z,2.65
2023-02-01T11:23:37.216Z,2.95
2023-02-01T11:26:14.645Z,2.97
2023-02-01T11:28:51.516Z,3.42
2023-02-01T11:31:18.057Z,2.92
2023-02-01T11:33:51.897Z,3.35
2023-02-01T11:36:21.942Z,3.00
2023-02-01T11:39:27.277Z,2.42
2023-02-01T11:42:01.735Z,3.17
2023-02-01T11:44:37.193Z,2.67
2023-02-01T11:47:39.449Z,2.90
2023-02-01T11:50:16.082Z,3.35
2023-02-01T11:53:04.037Z,2.75
2023-02-01T11:55:47.887Z,3.95
2023-02-01T11:58:40.949Z,3.72
2023-02-01T12:01:16.131Z,3.45
2023-02-01T12:04:07.488Z,3.33
2023-02-01T12:06:42.888Z,4.10
2023-02-01T12:09:30.248Z,3.40
2023-02-01T12:12:08.815Z,3.45
2023-02-01T12:14:51.230Z,3.67
2023-02-01T12:17:24.057Z,4.13
2023-02-01T12:20:24.483Z,3.47
2023-02-01T12:22:59.820Z,4.15
2023-02-01T12:28:29.552Z,3.45
2023-02-01T12:31:17.357Z,3.25
2023-02-01T12:33:55.626Z,3.38
2023-02-01T12:36:28.129Z,4.00
2023-02-01T12:39:12.281Z,3.42
2023-02-01T12:41:51.285Z,3.30
2023-02-01T12:44:27.979Z,3.58
2023-02-01T12:46:59.506Z,3.40
2023-02-01T12:49:53.340Z,3.15
2023-02-01T12:52:29.602Z,3.85
2023-02-01T12:55:06.397Z,3.17
2023-02-01T12:57:39.328Z,3.03
2023-02-01T13:00:28.156Z,2.90
2023-02-01T13:03:12.737Z,2.75
2023-02-01T13:05:53.293Z,2.90
2023-02-01T13:08:25.908Z,2.63
2023-02-01T13:11:01.063Z,2.35
2023-02-01T13:16:13.617Z,2.80
2023-02-01T13:18:44.074Z,3.22
2023-02-01T13:21:17.070Z,3.15
2023-02-01T13:23:46.825Z,3.35
2023-02-01T13:26:13.340Z,2.80
2023-02-01T13:28:47.984Z,2.92
2023-02-01T13:31:40.370Z,2.83
2023-02-01T13:34:22.726Z,2.50
2023-02-01T13:40:03.188Z,2.22
2023-02-01T13:42:35.080Z,2.83
2023-02-01T13:45:06.653Z,3.63
2023-02-01T13:47:40.945Z,2.17
2023-02-01T13:50:41.950Z,3.70
2023-02-01T13:53:22.401Z,2.20
2023-02-01T13:55:58.690Z,2.00
2023-02-01T13:58:33.121Z,2.45
2023-02-01T14:01:21.478Z,2.20
2023-02-01T14:03:51.809Z,2.30
2023-02-01T14:06:28.082Z,2.70
2023-02-01T14:09:15.404Z,2.28
2023-02-01T14:11:43.636Z,2.70
2023-02-01T14:14:15.716Z,2.25
2023-02-01T14:16:54.799Z,2.80
2023-02-01T14:19:24.502Z,2.05
2023-02-01T14:22:01.900Z,2.08
2023-02-01T14:24:31.969Z,2.28
2023-02-01T14:27:21.615Z,2.72
2023-02-01T14:30:02.028Z,2.75
2023-02-01T14:32:32.311Z,2.38
2023-02-01T14:35:01.562Z,2.08
2023-02-01T14:37:32.302Z,2.58
2023-02-01T14:40:05.441Z,2.10
2023-02-01T14:42:53.352Z,2.20
2023-02-01T14:45:23.292Z,2.10
2023-02-01T14:48:23.074Z,2.60
2023-02-01T14:50:50.651Z,2.08
2023-02-01T14:53:34.360Z,3.25
2023-02-01T14:56:11.576Z,2.35
2023-02-01T14:58:57.342Z,2.47
2023-02-01T15:01:50.941Z,2.03
2023-02-01T15:04:19.784Z,3.10
2023-02-01T15:07:02.705Z,2.47
2023-02-01T15:09:47.111Z,2.55
2023-02-01T15:12:13.603Z,2.42
2023-02-01T15:14:49.892Z,2.38
2023-02-01T15:17:27.741Z,2.47
2023-02-01T15:20:19.023Z,2.25
2023-02-01T15:22:58.270Z,2.30
2023-02-01T15:25:28.711Z,2.20
2023-02-01T15:27:56.615Z,2.90
2023-02-01T15:30:30.707Z,3.05
2023-02-01T15:33:14.649Z,2.65
2023-02-01T15:35:52.035Z,2.90
2023-02-01T15:38:21.383Z,2.60
2023-02-01T15:41:00.277Z,2.38
2023-02-01T15:43:28.712Z,2.22
2023-02-01T15:46:03.441Z,2.80
2023-02-01T15:48:38.933Z,2.55
2023-02-01T15:51:05.970Z,2.28
2023-02-01T15:53:33.699Z,2.35
2023-02-01T15:56:05.410Z,3.03
2023-02-01T15:58:32.715Z,4.20
2023-02-01T16:01:07.583Z,2.60
2023-02-01T16:03:39.723Z,2.50
2023-02-01T16:06:11.405Z,2.70
2023-02-01T16:08:38.442Z,3.72
2023-02-01T16:11:34.440Z,2.90
2023-02-01T16:14:01.616Z,2.78
2023-02-01T16:16:30.100Z,2.90
2023-02-01T16:18:56.537Z,3.25
2023-02-01T16:21:23.050Z,3.15
2023-02-01T16:23:52.930Z,2.80
2023-02-01T16:26:20.555Z,2.47
2023-02-01T16:28:47.433Z,3.30
2023-02-01T16:31:22.328Z,2.40
2023-02-01T16:33:52.515Z,2.40
2023-02-01T16:36:19.796Z,2.78
2023-02-01T16:38:50.369Z,2.33
2023-02-01T16:41:19.586Z,2.72
2023-02-01T16:43:46.682Z,2.58
2023-02-01T16:46:17.160Z,2.63
2023-02-01T16:48:47.365Z,2.13
2023-02-01T16:51:16.882Z,2.92
2023-02-01T16:53:53.888Z,2.20
2023-02-01T16:56:35.399Z,2.80
2023-02-01T16:59:02.487Z,3.17
2023-02-01T17:01:29.008Z,2.75
2023-02-01T17:03:55.449Z,2.85
2023-02-01T17:06:25.896Z,3.28
2023-02-01T17:08:58.949Z,2.97
2023-02-01T17:11:26.101Z,3.10
2023-02-01T17:13:52.472Z,2.38
2023-02-01T17:16:18.862Z,2.72
2023-02-01T17:18:51.232Z,3.60
2023-02-01T17:21:17.702Z,2.40
2023-02-01T17:23:44.121Z,3.05
2023-02-01T17:26:10.928Z,2.70
2023-02-01T17:28:37.296Z,3.30
2023-02-01T17:31:04.565Z,3.38
2023-02-01T17:33:39.812Z,2.83
2023-02-01T17:36:07.000Z,2.50
2023-02-01T17:38:34.929Z,3.15
2023-02-01T17:41:01.397Z,3.00
2023-02-01T17:43:27.901Z,2.60
2023-02-01T17:46:25.903Z,3.70
2023-02-01T17:48:53.775Z,3.35
2023-02-01T17:51:22.631Z,3.00
2023-02-01T17:53:49.365Z,3.53
2023-02-01T17:56:18.777Z,3.05
2023-02-01T17:58:45.939Z,2.75
2023-02-01T18:01:19.506Z,2.90
2023-02-01T18:03:46.707Z,2.85
2023-02-01T18:06:18.498Z,3.22
2023-02-01T18:08:45.764Z,2.30
2023-02-01T18:11:16.834Z,3.20
2023-02-01T18:13:43.393Z,2.47
2023-02-01T18:16:25.112Z,2.28
2023-02-01T18:18:52.129Z,3.10
2023-02-01T18:21:21.101Z,2.60
2023-02-01T18:23:47.859Z,2.92
2023-02-01T18:26:18.795Z,2.50
2023-02-01T18:28:45.527Z,2.60
2023-02-01T18:31:27.346Z,2.42
2023-02-01T18:33:55.518Z,2.45
2023-02-01T18:36:22.311Z,2.70
2023-02-01T18:38:49.290Z,2.45
2023-02-01T18:41:20.594Z,2.50
2023-02-01T18:43:47.715Z,2.33
2023-02-01T18:46:14.483Z,2.70
2023-02-01T18:48:42.685Z,2.95
2023-02-01T18:51:17.336Z,3.17
2023-02-01T18:53:43.847Z,3.58
2023-02-01T18:56:13.176Z,2.45
2023-02-01T18:58:40.415Z,3.03
2023-02-01T19:01:14.225Z,3.50
2023-02-01T19:03:45.412Z,2.80
2023-02-01T19:06:15.797Z,2.85
2023-02-01T19:08:45.324Z,3.33
2023-02-01T19:11:12.019Z,3.30
2023-02-01T19:13:39.736Z,3.20
2023-02-01T19:16:10.335Z,3.63
2023-02-01T19:18:37.997Z,2.83
2023-02-01T19:21:06.336Z,3.67
2023-02-01T19:23:33.118Z,2.83
2023-02-01T19:25:59.781Z,3.22
2023-02-01T19:28:26.288Z,3.25
2023-02-01T19:31:07.085Z,2.50
2023-02-01T19:33:34.471Z,2.80
2023-02-01T19:36:05.890Z,3.03
2023-02-01T19:38:33.902Z,3.05
2023-02-01T19:41:00.800Z,2.85
2023-02-01T19:43:27.345Z,3.25
2023-02-01T19:45:54.578Z,2.70
2023-02-01T19:48:21.192Z,3.10
2023-02-01T19:50:48.715Z,3.30
2023-02-01T19:53:15.187Z,2.88
2023-02-01T19:55:45.796Z,3.17
2023-02-01T19:58:12.344Z,3.22
2023-02-01T20:00:37.826Z,2.33
2023-02-01T20:03:04.449Z,3.25
2023-02-01T20:05:31.024Z,2.97
2023-02-01T20:07:57.534Z,2.72
2023-02-01T20:10:24.162Z,3.17
2023-02-01T20:12:50.590Z,3.75
2023-02-01T20:15:17.138Z,3.00
2023-02-01T20:17:44.538Z,3.22
2023-02-01T20:20:11.459Z,2.25
2023-02-01T20:22:37.807Z,2.55
2023-02-01T20:25:04.620Z,2.85
2023-02-01T20:27:31.855Z,2.90
2023-02-01T20:29:58.245Z,2.60
2023-02-01T20:32:24.654Z,2.80
2023-02-01T20:34:53.262Z,2.90
2023-02-01T20:37:20.570Z,1.90
2023-02-01T20:39:47.007Z,2.00
2023-02-01T20:42:13.400Z,2.10
2023-02-01T20:44:39.764Z,1.95
2023-02-01T20:47:06.134Z,2.42
2023-02-01T20:49:32.573Z,3.05
2023-02-01T20:51:59.048Z,4.10
2023-02-01T20:54:25.483Z,3.45
2023-02-01T20:56:51.943Z,3.33
2023-02-01T20:59:18.394Z,4.35
2023-02-01T21:01:53.986Z,2.72
2023-02-01T21:04:23.292Z,2.83
2023-02-01T21:06:49.764Z,2.83
2023-02-01T21:09:16.738Z,3.38
2023-02-01T21:11:44.044Z,2.75
2023-02-01T21:14:11.089Z,3.53
2023-02-01T21:16:37.705Z,2.72
2023-02-01T21:19:04.196Z,3.03
2023-02-01T21:21:30.673Z,3.72
2023-02-01T21:23:58.014Z,3.38
2023-02-01T21:26:26.444Z,2.92
2023-02-01T21:28:55.016Z,3.45
2023-02-01T21:31:24.780Z,3.17
2023-02-01T21:33:51.762Z,3.00
2023-02-01T21:36:18.918Z,3.03
2023-02-01T21:38:47.389Z,2.80
2023-02-01T21:41:32.529Z,3.10
2023-02-01T21:43:58.913Z,2.75
2023-02-01T21:46:25.386Z,3.22
2023-02-01T21:49:05.293Z,3.25
2023-02-01T21:51:35.072Z,2.80
2023-02-01T21:54:01.864Z,2.85
2023-02-01T21:56:28.250Z,3.03
2023-02-01T21:58:55.120Z,2.63
2023-02-01T22:01:21.653Z,2.65
2023-02-01T22:03:49.043Z,2.65
2023-02-01T22:06:41.279Z,2.83
2023-02-01T22:09:22.094Z,2.90
2023-02-01T22:11:49.935Z,3.00
2023-02-01T22:14:17.007Z,2.80
2023-02-01T22:16:43.498Z,2.25
2023-02-01T22:19:11.171Z,4.07
2023-02-01T22:21:39.174Z,2.72
2023-02-01T22:24:05.968Z,2.65
2023-02-01T22:26:32.471Z,2.70
2023-02-01T22:28:58.833Z,2.70
2023-02-01T22:31:25.246Z,2.58
2023-02-01T22:33:51.758Z,2.60
2023-02-01T22:36:18.510Z,2.58
2023-02-01T22:38:46.274Z,3.08
2023-02-01T22:41:13.177Z,3.00
2023-02-01T22:43:40.452Z,3.22
2023-02-01T22:46:11.969Z,3.03
2023-02-01T22:48:40.631Z,4.22
2023-02-01T22:51:08.094Z,2.42
2023-02-01T22:53:34.527Z,2.72
2023-02-01T22:56:05.730Z,2.55
2023-02-01T22:58:35.781Z,3.00
2023-02-01T23:01:08.017Z,3.15
2023-02-01T23:03:35.819Z,2.55
2023-02-01T23:06:03.667Z,3.45
2023-02-01T23:08:30.267Z,2.88
2023-02-01T23:11:01.033Z,2.65
2023-02-01T23:13:27.395Z,2.95
2023-02-01T23:15:53.796Z,2.28
2023-02-01T23:18:20.142Z,2.80
2023-02-01T23:20:46.493Z,2.78
2023-02-01T23:23:12.863Z,2.75
2023-02-01T23:25:39.357Z,3.13
2023-02-01T23:28:05.818Z,2.40
2023-02-01T23:30:32.239Z,2.75
2023-02-01T23:32:58.650Z,2.67
2023-02-01T23:35:25.764Z,3.25
2023-02-01T23:37:52.246Z,3.13
2023-02-01T23:40:18.938Z,3.25
2023-02-01T23:43:05.342Z,2.80
2023-02-01T23:45:31.736Z,2.60
2023-02-01T23:47:58.107Z,2.85
2023-02-01T23:50:24.493Z,2.85
2023-02-01T23:52:50.876Z,3.28
2023-02-01T23:55:17.461Z,3.38
2023-02-01T23:57:43.854Z,3.90
